M I D A S
Marine Information and Data Acquisition System
Tripno 1746 of the Zeeleeuw from 2009-08-05 07:12:31 to 2009-08-05 14:17:09
Back to CruiseResearch ActivitiesStationsMapUnderway DataData graphs

EquipmentUnitsComment
TimeDGPSUTC
LatitudeDGPSDM.mWGS84
LongitudeDGPSDM.mWGS84
HeadingGyrodeg 
SOGDGPSknotsSpeed over ground
COGDGPSdegCourse over ground
DepthEcho soundermeters200 kHz
Missing or incorrect values are displayed as -999
Navigation data collected by the RV Zeeleeuw from 2009-08-05 06:03:10 to 2009-08-05 15:33:31
Time Latitude Longitude Heading SOG COG Depth
2009-08-05 06:04:13 51°13.661 2°55.959 125.6 -999 140 7.2
2009-08-05 06:05:12 51°13.662 2°55.96 128.1 -999 46 7.1
2009-08-05 06:06:12 51°13.662 2°55.96 127.2 -999 194 7
2009-08-05 06:07:12 51°13.662 2°55.96 127.2 -999 87 7.1
2009-08-05 06:08:12 51°13.662 2°55.959 127.6 -999 266 5.3
2009-08-05 06:09:12 51°13.662 2°55.959 127.5 -999 217 7
2009-08-05 06:10:12 51°13.662 2°55.959 127.1 -999 140 7.1
2009-08-05 06:11:12 51°13.662 2°55.959 126.5 0.1 331 7.1
2009-08-05 06:12:12 51°13.662 2°55.959 126.2 -999 338 7.2
2009-08-05 06:13:12 51°13.662 2°55.959 126 -999 140 7.1
2009-08-05 06:14:12 51°13.662 2°55.959 125.9 -999 349 7.1
2009-08-05 06:15:12 51°13.662 2°55.96 125.8 -999 344 -999
2009-08-05 06:16:12 51°13.662 2°55.96 126.2 -999 225 7.2
2009-08-05 06:17:12 51°13.662 2°55.961 126.4 -999 48 7.1
2009-08-05 06:18:12 51°13.662 2°55.961 126.4 -999 37 7.1
2009-08-05 06:19:12 51°13.663 2°55.961 126.4 0.1 49 7.1
2009-08-05 06:20:12 51°13.663 2°55.96 126.4 -999 42 7.1
2009-08-05 06:21:12 51°13.663 2°55.96 126.8 0.1 18 7.1
2009-08-05 06:22:12 51°13.663 2°55.959 126.9 -999 54 7.1
2009-08-05 06:23:12 51°13.663 2°55.959 126.6 -999 263 7.1
2009-08-05 06:24:12 51°13.663 2°55.959 126.4 -999 155 7.2
2009-08-05 06:25:11 51°13.663 2°55.959 126.5 -999 45 7.2
2009-08-05 06:26:12 51°13.664 2°55.96 126.6 -999 302 7
2009-08-05 06:27:12 51°13.663 2°55.959 126.8 -999 326 7.1
2009-08-05 06:28:12 51°13.663 2°55.959 126.4 -999 41 5.4
2009-08-05 06:29:12 51°13.663 2°55.959 126.2 -999 8 5.4
2009-08-05 06:30:12 51°13.663 2°55.959 126.2 -999 323 7.2
2009-08-05 06:31:12 51°13.663 2°55.959 126.4 -999 346 -999
2009-08-05 06:32:12 51°13.663 2°55.959 126.4 -999 127 -999
2009-08-05 06:33:12 51°13.663 2°55.959 126.4 -999 358 7.1
2009-08-05 06:34:12 51°13.663 2°55.958 126.5 -999 198 -999
2009-08-05 06:35:12 51°13.663 2°55.958 126.4 -999 225 5.4
2009-08-05 06:36:11 51°13.663 2°55.958 126.4 -999 357 7.2
2009-08-05 06:37:12 51°13.663 2°55.959 126.5 -999 81 7.2
2009-08-05 06:38:12 51°13.662 2°55.959 126.2 -999 121 7.2
2009-08-05 06:39:12 51°13.663 2°55.959 126.4 -999 300 7.2
2009-08-05 06:40:12 51°13.664 2°55.959 126.1 -999 218 7.1
2009-08-05 06:41:15 51°13.663 2°55.959 126.5 -999 253 7.1
2009-08-05 06:42:14 51°13.665 2°55.959 127.2 -999 313 7.1
2009-08-05 06:43:12 51°13.663 2°55.959 127.2 -999 337 7.1
2009-08-05 06:44:12 51°13.663 2°55.959 127 -999 355 7.2
2009-08-05 06:45:12 51°13.663 2°55.959 126.8 -999 333 7.2
2009-08-05 06:46:12 51°13.663 2°55.959 126.6 -999 6 7.2
2009-08-05 06:47:12 51°13.663 2°55.959 127 -999 29 7.1
2009-08-05 06:48:12 51°13.663 2°55.959 127.1 -999 337 7.2
2009-08-05 06:49:12 51°13.663 2°55.959 127.1 -999 55 7.2
2009-08-05 06:50:12 51°13.663 2°55.959 127.4 -999 171 7.1
2009-08-05 06:51:12 51°13.662 2°55.96 127.1 -999 351 7.2
2009-08-05 06:52:12 51°13.663 2°55.96 127.1 -999 1 -999
2009-08-05 06:53:12 51°13.663 2°55.96 127.3 -999 312 7.2
2009-08-05 06:54:12 51°13.664 2°55.959 126.7 -999 183 5.5
2009-08-05 06:55:12 51°13.663 2°55.959 126.5 -999 235 5.4
2009-08-05 06:56:12 51°13.663 2°55.959 126.6 -999 353 5.4
2009-08-05 06:57:12 51°13.663 2°55.959 126.4 -999 275 7.3
2009-08-05 06:58:12 51°13.663 2°55.959 126.2 -999 281 7.3
2009-08-05 06:59:12 51°13.662 2°55.959 126 -999 307 7.3
2009-08-05 07:00:12 51°13.663 2°55.959 126.1 -999 316 7.3
2009-08-05 07:01:12 51°13.664 2°55.959 126 -999 102 7.3
2009-08-05 07:02:12 51°13.662 2°55.959 128.7 -999 227 7.2
2009-08-05 07:03:12 51°13.663 2°55.96 129 0.1 148 5.5
2009-08-05 07:04:12 51°13.663 2°55.96 129.3 -999 50 7.3
2009-08-05 07:05:12 51°13.663 2°55.96 129.1 -999 154 7.3
2009-08-05 07:06:12 51°13.662 2°55.959 123.9 0.1 185 7.3
2009-08-05 07:07:12 51°13.662 2°55.959 116.4 0.1 205 7.5
2009-08-05 07:08:12 51°13.665 2°55.947 113.1 1.8 295 7.7
2009-08-05 07:09:15 51°13.685 2°55.871 108.8 3.5 290 -999
2009-08-05 07:10:15 51°13.695 2°55.787 85 2.8 269 -999
2009-08-05 07:11:15 51°13.688 2°55.734 63.7 0.4 296 10.8
2009-08-05 07:12:14 51°13.704 2°55.739 13.8 1.6 6 11.1
2009-08-05 07:13:15 51°13.743 2°55.716 328.9 3.9 328 11
2009-08-05 07:14:13 51°13.816 2°55.646 332 6.2 331 10.4
2009-08-05 07:15:12 51°13.92 2°55.562 335.5 7.7 333 9.8
2009-08-05 07:16:12 51°14.04 2°55.468 337.3 8.2 335 10
2009-08-05 07:17:12 51°14.162 2°55.368 331.4 8.2 329 10.2
2009-08-05 07:18:12 51°14.268 2°55.228 315.7 8.7 313 10.1
2009-08-05 07:19:12 51°14.367 2°55.035 308.7 10.2 307 9.5
2009-08-05 07:20:12 51°14.486 2°54.816 324.5 11.1 321 9.7
2009-08-05 07:21:12 51°14.646 2°54.683 350 10.7 345 9
2009-08-05 07:22:12 51°14.821 2°54.619 354 10.9 348 8.9
2009-08-05 07:23:12 51°14.998 2°54.556 352.7 10.8 348 8.4
2009-08-05 07:24:12 51°15.17 2°54.494 354.4 10.6 348 7.8
2009-08-05 07:25:12 51°15.344 2°54.436 353.7 10.7 347 8.2
2009-08-05 07:26:12 51°15.519 2°54.384 358.9 10.6 354 8.9
2009-08-05 07:27:12 51°15.665 2°54.367 4.4 7.7 357 9.5
2009-08-05 07:28:12 51°15.787 2°54.369 11.7 7.1 5 9.7
2009-08-05 07:29:12 51°15.878 2°54.454 53.6 6.3 54 10.2
2009-08-05 07:30:12 51°15.906 2°54.633 84.6 9 89 9.9
2009-08-05 07:31:12 51°15.907 2°54.897 86.3 10.3 89 9.5
2009-08-05 07:32:12 51°15.912 2°55.172 85 10.3 87 9.4
2009-08-05 07:33:12 51°15.926 2°55.443 82.9 10.2 84 9
2009-08-05 07:34:12 51°15.947 2°55.712 80.7 10.2 82 8.8
2009-08-05 07:35:12 51°15.97 2°55.98 80.6 10.2 81 8.6
2009-08-05 07:36:12 51°16.008 2°56.242 71.5 10.1 71 8.4
2009-08-05 07:37:12 51°16.081 2°56.484 62.3 10.2 61 8.4
2009-08-05 07:38:12 51°16.165 2°56.72 62 10.3 60 8.4
2009-08-05 07:39:12 51°16.233 2°56.927 68.3 5.9 69 8.6
2009-08-05 07:40:12 51°16.268 2°57.057 61.9 6 60 8.6
2009-08-05 07:41:12 51°16.338 2°57.24 60.7 9.7 60 8.6
2009-08-05 07:42:12 51°16.423 2°57.475 62.4 10.4 60 8.5
2009-08-05 07:43:12 51°16.509 2°57.717 62.4 10.5 61 8.6
2009-08-05 07:44:12 51°16.593 2°57.959 62.5 10.4 61 8.6
2009-08-05 07:45:12 51°16.675 2°58.199 63 10.3 61 8.6
2009-08-05 07:46:12 51°16.757 2°58.438 62.8 10.3 62 8.4
2009-08-05 07:47:12 51°16.838 2°58.678 63.1 10.3 62 8.5
2009-08-05 07:48:12 51°16.918 2°58.92 63.9 10.3 63 8.7
2009-08-05 07:49:12 51°16.999 2°59.16 63.1 10.3 61 8.6
2009-08-05 07:50:12 51°17.081 2°59.399 62.8 10.2 62 8.7
2009-08-05 07:51:12 51°17.162 2°59.637 63.2 10.2 62 8.7
2009-08-05 07:52:12 51°17.243 2°59.877 63.5 10.3 62 8.6
2009-08-05 07:53:12 51°17.323 3°0.118 63.3 10.3 61 8.5
2009-08-05 07:54:12 51°17.404 3°0.36 64 10.3 62 8.5
2009-08-05 07:55:12 51°17.489 3°0.6 62.3 10.3 60 8.4
2009-08-05 07:56:12 51°17.579 3°0.83 59.9 10.2 58 8.5
2009-08-05 07:57:12 51°17.672 3°1.056 58.2 10.2 56 8.6
2009-08-05 07:58:12 51°17.762 3°1.285 59.6 10.2 58 8.7
2009-08-05 07:59:12 51°17.853 3°1.509 59.1 10 57 8.7
2009-08-05 08:00:12 51°17.944 3°1.732 58.7 10.1 57 8.8
2009-08-05 08:01:12 51°18.032 3°1.96 61.5 10.1 61 8.4
2009-08-05 08:02:12 51°18.116 3°2.193 61.1 10.1 60 8.2
2009-08-05 08:03:12 51°18.203 3°2.426 60.9 10.1 59 8.2
2009-08-05 08:04:12 51°18.29 3°2.658 60.6 10.2 59 8.1
2009-08-05 08:05:12 51°18.376 3°2.894 60.7 10.3 60 8.2
2009-08-05 08:06:12 51°18.467 3°3.127 56.7 10.4 54 8.2
2009-08-05 08:07:12 51°18.573 3°3.342 54.4 10 52 8.2
2009-08-05 08:08:12 51°18.676 3°3.546 54.2 9.7 52 8.2
2009-08-05 08:09:12 51°18.776 3°3.748 53.8 9.7 51 8.2
2009-08-05 08:10:12 51°18.877 3°3.95 53.9 9.7 52 8.2
2009-08-05 08:11:12 51°18.975 3°4.145 53.3 8.6 48 8.2
2009-08-05 08:12:12 51°19.078 3°4.23 12.5 5.5 -999 8
2009-08-05 08:13:12 51°19.183 3°4.184 352.8 8 344 7.4
2009-08-05 08:14:12 51°19.32 3°4.107 343.6 9.1 332 7.6
2009-08-05 08:15:12 51°19.421 3°3.922 303.4 9.7 292 7.7
2009-08-05 08:16:12 51°19.446 3°3.637 277.3 11.8 271 -999
2009-08-05 08:17:12 51°19.415 3°3.322 257.7 12.2 253 7.6
2009-08-05 08:18:12 51°19.335 3°3.022 246.2 12.4 245 7.5
2009-08-05 08:19:12 51°19.257 3°2.718 251.2 12.4 249 7.5
2009-08-05 08:20:12 51°19.171 3°2.418 245.9 12.5 245 7.5
2009-08-05 08:21:12 51°19.088 3°2.117 249.9 12.3 247 7.6
2009-08-05 08:22:12 51°19.006 3°1.815 247.8 12.5 246 8
2009-08-05 08:23:12 51°18.923 3°1.514 247.3 12.3 246 7.5
2009-08-05 08:24:12 51°18.853 3°1.207 254.3 12.3 252 7.5
2009-08-05 08:25:12 51°18.789 3°0.896 253.6 12.3 252 7.6
2009-08-05 08:26:12 51°18.725 3°0.585 254.1 12.4 252 7.8
2009-08-05 08:27:12 51°18.663 3°0.269 255.6 12.5 253 7.8
2009-08-05 08:28:12 51°18.597 2°59.954 253.5 12.5 251 8
2009-08-05 08:29:12 51°18.519 2°59.646 249.1 12.6 248 8.1
2009-08-05 08:30:12 51°18.442 2°59.335 250 12.6 248 8.3
2009-08-05 08:31:12 51°18.364 2°59.023 250 12.7 248 8.5
2009-08-05 08:32:12 51°18.286 2°58.709 250.1 12.7 248 8.6
2009-08-05 08:33:12 51°18.197 2°58.404 244 12.7 243 9
2009-08-05 08:34:12 51°18.1 2°58.104 243.9 12.7 243 9.3
2009-08-05 08:35:12 51°18.005 2°57.806 244.2 12.6 243 9.5
2009-08-05 08:36:12 51°17.91 2°57.509 244.3 12.4 243 9.9
2009-08-05 08:37:12 51°17.817 2°57.218 244.3 12.3 243 9.7
2009-08-05 08:38:12 51°17.724 2°56.93 243.8 12.2 243 9.8
2009-08-05 08:39:12 51°17.636 2°56.634 249 12.5 248 9.7
2009-08-05 08:40:12 51°17.559 2°56.325 250.2 12.5 248 9.8
2009-08-05 08:41:12 51°17.481 2°56.016 249.8 12.6 248 9.8
2009-08-05 08:42:12 51°17.401 2°55.708 249.2 12.6 247 10
2009-08-05 08:43:12 51°17.32 2°55.403 248.7 12.3 246 9.9
2009-08-05 08:44:12 51°17.238 2°55.106 249.2 12.1 247 10
2009-08-05 08:45:12 51°17.158 2°54.811 248.8 12.1 246 10.2
2009-08-05 08:46:12 51°17.079 2°54.516 248.6 12 246 10.3
2009-08-05 08:47:12 51°16.998 2°54.226 249.7 12 247 10.5
2009-08-05 08:48:12 51°16.923 2°53.931 252.7 11.9 252 10.7
2009-08-05 08:49:12 51°16.886 2°53.625 268.8 11.7 266 10.6
2009-08-05 08:50:12 51°16.903 2°53.32 281 11.5 275 8.7
2009-08-05 08:51:12 51°16.98 2°53.067 322.3 10.6 318 8.3
2009-08-05 08:52:12 51°17.142 2°52.97 354.8 10.5 352 9.2
2009-08-05 08:53:12 51°17.313 2°52.998 14.9 10.5 11 9.4
2009-08-05 08:54:12 51°17.48 2°53.08 24 10.5 21 9.7
2009-08-05 08:55:12 51°17.638 2°53.197 29.4 10.5 27 9.6
2009-08-05 08:56:12 51°17.788 2°53.336 36.4 10.4 35 9.9
2009-08-05 08:57:12 51°17.915 2°53.523 50.1 10.4 49 10
2009-08-05 08:58:12 51°18.011 2°53.752 57.7 10.4 58 10.1
2009-08-05 08:59:12 51°18.1 2°53.984 58.7 10.2 58 10
2009-08-05 09:00:12 51°18.19 2°54.212 58.6 10.1 57 10.1
2009-08-05 09:01:12 51°18.281 2°54.439 57.7 10.1 56 10.1
2009-08-05 09:02:12 51°18.375 2°54.664 57.4 10.2 56 10.2
2009-08-05 09:03:12 51°18.466 2°54.894 59.6 10.3 58 10.2
2009-08-05 09:04:12 51°18.557 2°55.126 58.6 10.3 57 10.4
2009-08-05 09:05:12 51°18.65 2°55.356 58.2 10.3 56 10.5
2009-08-05 09:06:12 51°18.745 2°55.58 58.3 10.1 57 10.4
2009-08-05 09:07:12 51°18.831 2°55.812 60.5 10.2 61 10.5
2009-08-05 09:08:12 51°18.914 2°56.049 62 10.2 62 10.4
2009-08-05 09:09:12 51°18.99 2°56.293 64.1 10.2 64 10.4
2009-08-05 09:10:12 51°19.064 2°56.537 64.5 10.2 64 10.3
2009-08-05 09:11:12 51°19.136 2°56.784 66.9 10.2 67 10.3
2009-08-05 09:12:12 51°19.202 2°57.035 68.4 10.3 69 10
2009-08-05 09:13:12 51°19.266 2°57.289 67.1 10.3 68 9.9
2009-08-05 09:14:12 51°19.335 2°57.539 66.1 10.3 67 9.8
2009-08-05 09:15:12 51°19.401 2°57.792 66.8 10.4 67 9.7
2009-08-05 09:16:12 51°19.468 2°58.044 66.9 10.3 66 9.7
2009-08-05 09:17:12 51°19.539 2°58.296 66.2 10.4 66 9.6
2009-08-05 09:18:12 51°19.608 2°58.55 67.6 10.5 67 9.4
2009-08-05 09:19:12 51°19.675 2°58.806 67.3 10.5 68 9.3
2009-08-05 09:20:12 51°19.743 2°59.062 67 10.5 66 9.5
2009-08-05 09:21:12 51°19.814 2°59.317 66.1 10.5 66 9.5
2009-08-05 09:22:12 51°19.884 2°59.573 66.6 10.5 66 9.5
2009-08-05 09:23:12 51°19.954 2°59.829 66.6 10.5 66 9.5
2009-08-05 09:24:12 51°20.025 3°0.084 66.6 10.5 66 9.5
2009-08-05 09:25:12 51°20.095 3°0.342 66.5 10.7 67 9.5
2009-08-05 09:26:12 51°20.166 3°0.6 66 10.5 66 9.5
2009-08-05 09:27:12 51°20.235 3°0.856 66.3 10.5 66 9.5
2009-08-05 09:28:12 51°20.305 3°1.112 66 10.5 67 9.5
2009-08-05 09:29:12 51°20.375 3°1.369 66.3 10.6 66 9.5
2009-08-05 09:30:12 51°20.446 3°1.626 66.1 10.6 67 9.5
2009-08-05 09:31:12 51°20.517 3°1.884 66.4 10.7 66 9.5
2009-08-05 09:32:12 51°20.589 3°2.143 66.2 10.7 66 9.6
2009-08-05 09:33:12 51°20.661 3°2.402 66.4 10.6 66 9.6
2009-08-05 09:34:12 51°20.734 3°2.661 66.2 10.7 66 9.7
2009-08-05 09:35:12 51°20.791 3°2.931 75.8 10.7 78 9.6
2009-08-05 09:36:12 51°20.826 3°3.212 78.1 10.8 79 9.5
2009-08-05 09:37:12 51°20.845 3°3.5 85.6 10.9 87 9.6
2009-08-05 09:38:12 51°20.854 3°3.789 86.1 10.9 88 9.6
2009-08-05 09:39:12 51°20.862 3°4.077 85.4 10.7 86 9.5
2009-08-05 09:40:12 51°20.879 3°4.36 83.6 10.8 84 9.4
2009-08-05 09:41:12 51°20.899 3°4.646 82.8 10.9 83 9.2
2009-08-05 09:42:12 51°20.922 3°4.933 82.5 10.9 82 9
2009-08-05 09:43:12 51°20.945 3°5.22 82.6 10.9 83 8.9
2009-08-05 09:44:12 51°20.969 3°5.507 82.7 10.9 82 9
2009-08-05 09:45:12 51°20.993 3°5.798 82.8 11.1 83 9
2009-08-05 09:46:12 51°21.019 3°6.088 82 11 82 9
2009-08-05 09:47:12 51°21.04 3°6.376 84.6 10.9 84 8.8
2009-08-05 09:48:12 51°21.057 3°6.664 85.6 10.9 86 8.6
2009-08-05 09:49:12 51°21.067 3°6.954 87.7 10.9 87 8.4
2009-08-05 09:50:12 51°21.068 3°7.246 92.3 11 93 8.3
2009-08-05 09:51:12 51°21.036 3°7.532 106.8 11 108 8.2
2009-08-05 09:52:12 51°20.972 3°7.788 114.1 8.2 116 8.4
2009-08-05 09:53:12 51°20.938 3°7.929 88.6 4 88 8.5
2009-08-05 09:54:12 51°20.966 3°7.993 27.5 2.6 22 8.6
2009-08-05 09:55:12 51°21.006 3°7.982 336.1 2.9 332 8.6
2009-08-05 09:56:12 51°21.062 3°7.96 359.4 3.7 357 8.7
2009-08-05 09:57:12 51°21.125 3°7.975 20.8 3.6 21 8.7
2009-08-05 09:58:12 51°21.171 3°8.027 43.8 3.3 44 8.8
2009-08-05 09:59:12 51°21.208 3°8.094 50.1 3.4 51 9
2009-08-05 10:00:12 51°21.239 3°8.169 59 3.4 60 9
2009-08-05 10:01:12 51°21.263 3°8.25 64.5 3.4 65 9.2
2009-08-05 10:02:12 51°21.286 3°8.334 68.1 3.4 68 9.4
2009-08-05 10:03:12 51°21.307 3°8.418 66.1 3.4 67 9.3
2009-08-05 10:04:12 51°21.328 3°8.502 65.9 3.4 66 9.5
2009-08-05 10:05:12 51°21.355 3°8.582 58.4 3.4 60 9.7
2009-08-05 10:06:12 51°21.383 3°8.661 59.3 3.4 60 9.8
2009-08-05 10:07:12 51°21.412 3°8.741 58.2 3.5 59 10
2009-08-05 10:08:12 51°21.443 3°8.821 57.7 3.5 58 10.2
2009-08-05 10:09:12 51°21.474 3°8.901 58.2 3.5 59 10.4
2009-08-05 10:10:12 51°21.505 3°8.981 57.8 3.6 58 10.5
2009-08-05 10:11:12 51°21.536 3°9.063 58.2 3.6 59 10.8
2009-08-05 10:12:12 51°21.568 3°9.145 58.5 3.7 58 11.1
2009-08-05 10:13:12 51°21.6 3°9.228 58.6 3.7 58 11.4
2009-08-05 10:14:12 51°21.633 3°9.313 58.7 3.8 58 11.7
2009-08-05 10:15:12 51°21.667 3°9.399 58.4 3.8 57 12.2
2009-08-05 10:16:12 51°21.701 3°9.485 59 3.8 58 12.5
2009-08-05 10:17:12 51°21.728 3°9.567 67.2 3.2 64 12.4
2009-08-05 10:18:12 51°21.748 3°9.639 70.8 2.8 67 12.7
2009-08-05 10:19:12 51°21.756 3°9.708 101.5 2.5 94 12.8
2009-08-05 10:20:12 51°21.722 3°9.763 176 3.6 175 12.7
2009-08-05 10:21:12 51°21.67 3°9.71 234.5 3 234 12.6
2009-08-05 10:22:12 51°21.657 3°9.653 257.1 1.8 263 12.6
2009-08-05 10:23:12 51°21.659 3°9.618 266.5 1.1 281 12.5
2009-08-05 10:24:12 51°21.663 3°9.595 263.4 0.7 291 12.4
2009-08-05 10:25:12 51°21.667 3°9.582 261.6 0.5 309 12.4
2009-08-05 10:26:12 51°21.673 3°9.575 260.6 0.4 337 12.4
2009-08-05 10:27:12 51°21.679 3°9.573 260.7 0.4 346 12.7
2009-08-05 10:28:12 51°21.683 3°9.548 262.1 1.7 273 12.6
2009-08-05 10:29:12 51°21.68 3°9.483 258 3.1 263 12.5
2009-08-05 10:30:12 51°21.676 3°9.387 265.2 3.9 268 12.5
2009-08-05 10:31:12 51°21.671 3°9.287 258.3 3.5 261 12.1
2009-08-05 10:32:12 51°21.654 3°9.201 245.8 3.3 246 11.9
2009-08-05 10:33:12 51°21.628 3°9.126 238.9 3.2 238 11.6
2009-08-05 10:34:12 51°21.592 3°9.068 223.4 3.1 218 11.4
2009-08-05 10:35:12 51°21.548 3°9.018 220.2 3.2 214 11.3
2009-08-05 10:36:12 51°21.505 3°8.967 223.1 3.2 218 11
2009-08-05 10:37:12 51°21.465 3°8.911 225.1 3.2 221 10.8
2009-08-05 10:38:12 51°21.425 3°8.856 225.8 3.2 221 10.7
2009-08-05 10:39:12 51°21.385 3°8.799 225.8 3.2 222 10.5
2009-08-05 10:40:12 51°21.346 3°8.744 225.4 3.1 220 10.4
2009-08-05 10:41:12 51°21.307 3°8.69 226.5 3.1 222 10.1
2009-08-05 10:42:12 51°21.27 3°8.635 228.5 3 225 10
2009-08-05 10:43:12 51°21.234 3°8.579 229.3 3 225 10.1
2009-08-05 10:44:12 51°21.2 3°8.523 229.2 2.9 225 10.1
2009-08-05 10:45:12 51°21.165 3°8.468 228.9 2.9 227 10.1
2009-08-05 10:46:12 51°21.136 3°8.408 238.9 2.9 238 10
2009-08-05 10:47:12 51°21.115 3°8.34 248.4 2.8 253 10
2009-08-05 10:48:12 51°21.111 3°8.265 266.5 2.9 278 9.9
2009-08-05 10:49:12 51°21.132 3°8.198 294.6 2.6 313 9.9
2009-08-05 10:50:12 51°21.164 3°8.166 310 2.1 339 9.9
2009-08-05 10:51:12 51°21.195 3°8.156 316.5 1.9 356 10
2009-08-05 10:52:12 51°21.224 3°8.155 314.4 1.6 3 10.1
2009-08-05 10:53:12 51°21.248 3°8.16 307.7 1.4 11 10.2
2009-08-05 10:54:12 51°21.268 3°8.17 300.2 1.2 20 10.2
2009-08-05 10:55:12 51°21.286 3°8.182 294 1.1 27 10.2
2009-08-05 10:56:12 51°21.302 3°8.199 288 1.2 38 10.5
2009-08-05 10:57:12 51°21.318 3°8.219 281.7 1.2 42 10.6
2009-08-05 10:58:12 51°21.332 3°8.238 277.4 0.9 -999 10.6
2009-08-05 10:59:12 51°21.359 3°8.187 291.6 4.5 301 10.9
2009-08-05 11:00:12 51°21.347 3°8.044 250.7 6.5 253 10.6
2009-08-05 11:01:12 51°21.314 3°7.87 257.4 7 259 10.5
2009-08-05 11:02:12 51°21.324 3°7.71 298.6 5.5 316 10.8
2009-08-05 11:03:12 51°21.4 3°7.67 332 4.3 351 11.5
2009-08-05 11:04:12 51°21.462 3°7.659 330.4 3.4 358 11.7
2009-08-05 11:05:12 51°21.516 3°7.668 346.6 3.4 15 12
2009-08-05 11:06:12 51°21.574 3°7.713 17.1 4.3 32 12.3
2009-08-05 11:07:12 51°21.628 3°7.784 35.9 3.9 46 12.4
2009-08-05 11:08:12 51°21.664 3°7.86 50.6 3.3 58 12.7
2009-08-05 11:09:12 51°21.69 3°7.931 57.9 2.9 61 12.7
2009-08-05 11:10:12 51°21.713 3°7.997 58.2 2.8 64 12.8
2009-08-05 11:11:12 51°21.736 3°8.061 56.2 2.8 58 12.8
2009-08-05 11:12:12 51°21.76 3°8.125 53.8 3 59 13
2009-08-05 11:13:12 51°21.787 3°8.194 53.3 3.2 61 13.1
2009-08-05 11:14:12 51°21.816 3°8.267 52.6 3.3 57 13.2
2009-08-05 11:15:12 51°21.846 3°8.341 43.6 3.4 55 13.3
2009-08-05 11:16:12 51°21.881 3°8.413 36.3 3.5 52 13.4
2009-08-05 11:17:12 51°21.918 3°8.486 36.8 3.5 51 13.6
2009-08-05 11:18:12 51°21.954 3°8.561 40 3.6 53 13.7
2009-08-05 11:19:12 51°21.988 3°8.64 50.4 3.6 57 13.9
2009-08-05 11:20:12 51°22.02 3°8.722 56 3.7 59 14
2009-08-05 11:21:12 51°22.05 3°8.807 57.8 3.7 60 14.2
2009-08-05 11:22:12 51°22.078 3°8.893 60.6 3.6 64 14.3
2009-08-05 11:23:12 51°22.104 3°8.979 58.7 3.5 64 14.6
2009-08-05 11:24:12 51°22.128 3°9.062 71.1 3.3 69 14.4
2009-08-05 11:25:12 51°22.144 3°9.143 85.7 3.1 75 14.8
2009-08-05 11:26:12 51°22.155 3°9.225 104.1 3.3 83 14.7
2009-08-05 11:27:12 51°22.147 3°9.318 148.9 3 102 14.9
2009-08-05 11:28:12 51°22.138 3°9.387 170.2 2.4 100 15.1
2009-08-05 11:29:12 51°22.133 3°9.441 192.2 1.9 96 15.1
2009-08-05 11:30:12 51°22.132 3°9.485 216.3 1.5 88 15.3
2009-08-05 11:31:12 51°22.136 3°9.519 242.9 0.6 71 15.1
2009-08-05 11:32:12 51°22.164 3°9.501 306.4 3.4 340 15.2
2009-08-05 11:33:12 51°22.226 3°9.44 300.2 6 316 15.2
2009-08-05 11:34:12 51°22.313 3°9.265 297.8 9.8 306 15.2
2009-08-05 11:35:12 51°22.411 3°9.048 298.9 10.2 306 15.1
2009-08-05 11:36:12 51°22.513 3°8.831 299.5 10.2 307 15
2009-08-05 11:37:12 51°22.613 3°8.613 299.6 10.2 307 15
2009-08-05 11:38:12 51°22.715 3°8.397 299.2 10.2 306 15.2
2009-08-05 11:39:12 51°22.814 3°8.179 299.2 10.2 306 15
2009-08-05 11:40:12 51°22.91 3°7.963 298.9 9.9 305 14.7
2009-08-05 11:41:12 51°23.006 3°7.749 299.4 9.9 306 14.3
2009-08-05 11:42:12 51°23.101 3°7.533 299.1 10 306 14
2009-08-05 11:43:12 51°23.198 3°7.316 299.7 10.1 306 14.2
2009-08-05 11:44:12 51°23.296 3°7.098 298.6 10 305 14.5
2009-08-05 11:45:12 51°23.371 3°6.866 288.7 9.7 294 14.8
2009-08-05 11:46:12 51°23.436 3°6.628 288.3 9.8 293 14.9
2009-08-05 11:47:12 51°23.502 3°6.392 288.6 9.7 294 15.7
2009-08-05 11:48:12 51°23.569 3°6.156 289.2 9.8 294 16.2
2009-08-05 11:49:12 51°23.634 3°5.918 288.8 9.8 293 15.8
2009-08-05 11:50:12 51°23.699 3°5.679 289 9.8 293 15.7
2009-08-05 11:51:12 51°23.764 3°5.438 288.6 9.9 292 15.9
2009-08-05 11:52:12 51°23.814 3°5.188 283.6 9.9 287 16.1
2009-08-05 11:53:12 51°23.861 3°4.935 282.9 10 286 15.9
2009-08-05 11:54:12 51°23.907 3°4.681 283 9.8 286 16.2
2009-08-05 11:55:12 51°23.952 3°4.43 283 9.8 287 16.2
2009-08-05 11:56:12 51°24 3°4.18 283 9.8 287 16.1
2009-08-05 11:57:12 51°24.049 3°3.931 283.5 9.8 287 16.5
2009-08-05 11:58:12 51°24.101 3°3.685 289.2 9.8 297 16.7
2009-08-05 11:59:12 51°24.215 3°3.488 312.9 10.6 321 17.1
2009-08-05 12:00:12 51°24.353 3°3.308 315.8 10.7 321 20.8
2009-08-05 12:01:12 51°24.489 3°3.124 314.7 10.7 319 21.5
2009-08-05 12:02:12 51°24.624 3°2.937 313.6 10.8 318 21.8
2009-08-05 12:03:12 51°24.762 3°2.75 315.8 10.9 321 20
2009-08-05 12:04:12 51°24.902 3°2.562 314.4 11 319 18
2009-08-05 12:05:12 51°25.042 3°2.373 316.2 11 319 16.9
2009-08-05 12:06:12 51°25.181 3°2.183 316.1 11 320 16.2
2009-08-05 12:07:12 51°25.32 3°1.993 315.8 11 319 15.3
2009-08-05 12:08:12 51°25.458 3°1.802 315.8 11 319 14.4
2009-08-05 12:09:12 51°25.596 3°1.609 315.7 11 319 14.2
2009-08-05 12:10:12 51°25.736 3°1.417 315.1 11.1 320 13.9
2009-08-05 12:11:12 51°25.877 3°1.226 315.6 11.2 320 13.6
2009-08-05 12:12:12 51°26.019 3°1.033 313.2 11.2 319 14.4
2009-08-05 12:13:12 51°26.156 3°0.831 311.1 11.2 317 15.7
2009-08-05 12:14:12 51°26.294 3°0.627 312.1 11.4 318 18.1
2009-08-05 12:15:12 51°26.437 3°0.425 314.6 11.6 320 24
2009-08-05 12:16:12 51°26.584 3°0.221 313.7 11.8 319 26.8
2009-08-05 12:17:12 51°26.731 3°0.012 312 11.8 317 27.1
2009-08-05 12:18:12 51°26.878 2°59.801 312.9 11.9 319 26.2
2009-08-05 12:19:12 51°27.031 2°59.596 314.5 12 321 23
2009-08-05 12:20:12 51°27.185 2°59.391 311.8 12 318 22
2009-08-05 12:21:12 51°27.325 2°59.169 311.7 11.8 317 20
2009-08-05 12:22:12 51°27.474 2°58.969 317.7 11.6 323 20.3
2009-08-05 12:23:12 51°27.624 2°58.778 317.2 11.5 321 20.3
2009-08-05 12:24:12 51°27.772 2°58.585 314.9 11.4 320 22.4
2009-08-05 12:25:12 51°27.927 2°58.402 323.4 11.7 329 27.6
2009-08-05 12:26:12 51°28.104 2°58.263 331.4 12 336 29.1
2009-08-05 12:27:12 51°28.289 2°58.134 333 12.2 338 32.2
2009-08-05 12:28:12 51°28.476 2°58.004 331.3 12.2 335 32
2009-08-05 12:29:12 51°28.661 2°57.873 330.1 11.7 330 31.4
2009-08-05 12:30:12 51°28.725 2°57.643 257.3 9.5 262 30.5
2009-08-05 12:31:12 51°28.707 2°57.377 258.8 10.2 264 30.5
2009-08-05 12:32:12 51°28.686 2°57.109 254 9.9 257 29.2
2009-08-05 12:33:12 51°28.608 2°56.887 229 9.6 229 28.9
2009-08-05 12:34:12 51°28.505 2°56.689 230.9 9.7 232 28.2
2009-08-05 12:35:12 51°28.408 2°56.48 231.4 9.8 231 29.2
2009-08-05 12:36:12 51°28.31 2°56.273 232.2 9.7 233 29
2009-08-05 12:37:12 51°28.216 2°56.061 234.6 9.8 236 28.6
2009-08-05 12:38:12 51°28.122 2°55.848 233.2 9.8 235 29.1
2009-08-05 12:39:12 51°28.031 2°55.633 235 9.7 236 29.8
2009-08-05 12:40:12 51°27.939 2°55.42 234.7 9.7 236 28.8
2009-08-05 12:41:12 51°27.849 2°55.207 234.6 9.7 236 29.7
2009-08-05 12:42:12 51°27.758 2°54.995 234.6 9.7 236 29.3
2009-08-05 12:43:12 51°27.662 2°54.79 230.9 9.6 232 29.9
2009-08-05 12:44:12 51°27.564 2°54.589 231.7 9.6 232 30
2009-08-05 12:45:12 51°27.463 2°54.391 229.8 9.5 230 29.7
2009-08-05 12:46:12 51°27.362 2°54.198 230.2 9.4 230 27.5
2009-08-05 12:47:12 51°27.264 2°54.003 232.9 9.4 234 26.1
2009-08-05 12:48:12 51°27.166 2°53.806 228.1 9.5 227 25.7
2009-08-05 12:49:12 51°27.058 2°53.623 225.8 9.4 226 27.8
2009-08-05 12:50:12 51°26.952 2°53.435 230.2 9.6 231 29.9
2009-08-05 12:51:12 51°26.855 2°53.232 232 9.6 234 30.6
2009-08-05 12:52:12 51°26.766 2°53.018 236.6 9.7 238 30.5
2009-08-05 12:53:12 51°26.679 2°52.803 236.5 9.6 238 30.4
2009-08-05 12:54:12 51°26.592 2°52.589 235.8 9.6 236 30
2009-08-05 12:55:12 51°26.504 2°52.374 235.9 9.6 237 29.1
2009-08-05 12:56:12 51°26.414 2°52.163 233.7 9.6 234 28.7
2009-08-05 12:57:12 51°26.324 2°51.953 236.1 9.6 238 27.6
2009-08-05 12:58:12 51°26.252 2°51.723 242.9 9.7 245 26.9
2009-08-05 12:59:12 51°26.174 2°51.497 238 9.7 239 31.3
2009-08-05 13:00:12 51°26.089 2°51.278 237.6 9.6 238 25.5
2009-08-05 13:01:12 51°26.009 2°51.058 239.6 9.6 240 25.6
2009-08-05 13:02:12 51°25.936 2°50.829 245.4 9.7 248 25.3
2009-08-05 13:03:12 51°25.874 2°50.592 246.1 9.7 248 25.4
2009-08-05 13:04:12 51°25.814 2°50.353 246.5 9.7 248 25.1
2009-08-05 13:05:12 51°25.752 2°50.114 245.7 9.6 248 24.7
2009-08-05 13:06:12 51°25.691 2°49.877 245.8 9.6 248 24.6
2009-08-05 13:07:12 51°25.63 2°49.639 245.4 9.7 247 24.7
2009-08-05 13:08:12 51°25.565 2°49.404 243.5 9.6 245 25
2009-08-05 13:09:12 51°25.502 2°49.169 245 9.6 248 25.3
2009-08-05 13:10:12 51°25.442 2°48.931 246.4 9.7 249 25.8
2009-08-05 13:11:12 51°25.384 2°48.69 246.1 9.7 249 29.7
2009-08-05 13:12:12 51°25.323 2°48.45 245.9 9.8 248 31.2
2009-08-05 13:13:12 51°25.262 2°48.21 246.1 9.8 249 30.9
2009-08-05 13:14:12 51°25.203 2°47.967 246 9.8 249 29.8
2009-08-05 13:15:12 51°25.141 2°47.724 244.7 9.8 247 29.4
2009-08-05 13:16:12 51°25.078 2°47.482 244.7 9.9 248 29.4
2009-08-05 13:17:13 51°25.011 2°47.236 244.4 9.9 247 29.5
2009-08-05 13:18:12 51°24.947 2°46.995 246.1 10 248 28
2009-08-05 13:19:12 51°24.882 2°46.752 244.5 10 247 27.2
2009-08-05 13:20:12 51°24.819 2°46.504 246.9 10.1 249 27
2009-08-05 13:21:12 51°24.757 2°46.256 245.2 10.1 248 26.8
2009-08-05 13:22:12 51°24.695 2°46.008 245.7 10.1 249 26.5
2009-08-05 13:23:12 51°24.632 2°45.763 245.1 9.9 245 27.3
2009-08-05 13:24:12 51°24.572 2°45.516 247.4 10.1 248 28.3
2009-08-05 13:25:12 51°24.517 2°45.261 250.1 10.2 254 28
2009-08-05 13:26:12 51°24.465 2°45.003 248.1 10.2 249 27.8
2009-08-05 13:27:12 51°24.404 2°44.753 245.4 10.2 248 27.6
2009-08-05 13:28:12 51°24.335 2°44.507 242.5 10.1 243 26.5
2009-08-05 13:29:12 51°24.258 2°44.273 239 9.9 240 27
2009-08-05 13:30:12 51°24.171 2°44.053 234 10 235 28.3
2009-08-05 13:31:12 51°24.07 2°43.838 233.8 10 235 26.8
2009-08-05 13:32:12 51°23.985 2°43.633 239.9 6.6 246 28.2
2009-08-05 13:33:12 51°24.018 2°43.537 324 4.6 347 26.9
2009-08-05 13:34:12 51°24.099 2°43.591 38.5 6.6 40 27.9
2009-08-05 13:35:12 51°24.206 2°43.776 55.6 11.4 54 24.9
2009-08-05 13:36:12 51°24.303 2°44.07 69 13 66 26.3
2009-08-05 13:37:12 51°24.386 2°44.392 69.9 13.2 67 27
2009-08-05 13:38:12 51°24.471 2°44.712 70.5 13.1 68 28.8
2009-08-05 13:39:12 51°24.556 2°45.03 70.3 13 67 27.6
2009-08-05 13:40:12 51°24.632 2°45.354 76.5 13 72 27.5
2009-08-05 13:41:12 51°24.694 2°45.653 75.5 9 71 27.2
2009-08-05 13:42:12 51°24.728 2°45.827 83.6 5.5 74 26.7
2009-08-05 13:43:12 51°24.745 2°45.948 99.2 3.9 81 26.3
2009-08-05 13:44:12 51°24.75 2°46.045 110.4 3.8 91 26.4
2009-08-05 13:45:12 51°24.749 2°46.147 109.8 3.8 91 26.2
2009-08-05 13:46:12 51°24.75 2°46.246 105.6 3.7 87 26.7
2009-08-05 13:47:12 51°24.758 2°46.343 97.7 3.6 80 26.9
2009-08-05 13:48:12 51°24.768 2°46.437 95.6 3.5 80 26.9
2009-08-05 13:49:12 51°24.783 2°46.527 82 3.6 69 27.8
2009-08-05 13:50:12 51°24.806 2°46.614 76.8 3.6 66 27.5
2009-08-05 13:51:12 51°24.834 2°46.7 67.6 3.7 59 28
2009-08-05 13:52:12 51°24.869 2°46.782 59.2 3.7 54 27.5
2009-08-05 13:53:12 51°24.906 2°46.861 57.4 3.7 53 27.7
2009-08-05 13:54:12 51°24.942 2°46.94 59.5 3.7 55 27.4
2009-08-05 13:55:12 51°24.977 2°47.02 58.1 3.7 53 27.4
2009-08-05 13:56:12 51°25.015 2°47.099 58.8 3.8 53 27.3
2009-08-05 13:57:12 51°25.053 2°47.178 60.2 3.8 54 27
2009-08-05 13:58:12 51°25.09 2°47.26 61 3.7 53 26.4
2009-08-05 13:59:12 51°25.125 2°47.335 60.3 3.3 53 26.8
2009-08-05 14:00:12 51°25.157 2°47.402 60.8 3.1 52 26.8
2009-08-05 14:01:12 51°25.189 2°47.464 59.7 3 52 27
2009-08-05 14:02:12 51°25.221 2°47.528 60 3.1 52 27
2009-08-05 14:03:12 51°25.253 2°47.595 60.2 3.2 52 28.2
2009-08-05 14:04:12 51°25.286 2°47.662 60.4 3.2 53 28.2
2009-08-05 14:05:12 51°25.317 2°47.731 64.7 3.2 55 27.6
2009-08-05 14:06:12 51°25.344 2°47.802 75.7 3.1 62 27.7
2009-08-05 14:07:12 51°25.366 2°47.875 81.9 3 67 28.3
2009-08-05 14:08:12 51°25.386 2°47.95 82 3 68 28.6
2009-08-05 14:09:13 51°25.396 2°48.021 123.3 2.3 88 28.5
2009-08-05 14:10:12 51°25.389 2°48.075 156.8 1.9 114 28.7
2009-08-05 14:11:12 51°25.376 2°48.109 182.6 1.1 118 29
2009-08-05 14:12:12 51°25.371 2°48.132 184.4 0.9 98 29
2009-08-05 14:13:12 51°25.373 2°48.156 173.5 1 79 29.2
2009-08-05 14:14:12 51°25.377 2°48.183 163.7 1.1 69 29.2
2009-08-05 14:15:12 51°25.386 2°48.21 157 1.1 61 29.2
2009-08-05 14:16:12 51°25.393 2°48.237 154.3 1.3 94 29.4
2009-08-05 14:17:12 51°25.351 2°48.297 158.9 5.9 146 29.9
2009-08-05 14:18:12 51°25.245 2°48.398 160.5 8.7 154 30.9
2009-08-05 14:19:12 51°25.101 2°48.481 168.7 10 162 29.1
2009-08-05 14:20:12 51°24.938 2°48.59 157.8 11 151 26.3
2009-08-05 14:21:12 51°24.78 2°48.741 157.3 11.1 152 25.1
2009-08-05 14:22:13 51°24.61 2°48.861 162.9 11 157 23.8
2009-08-05 14:23:12 51°24.441 2°48.961 165.4 11 161 23.1
2009-08-05 14:24:12 51°24.27 2°49.059 165.2 11 160 23.9
2009-08-05 14:25:12 51°24.099 2°49.162 164.6 10.9 158 24.2
2009-08-05 14:26:12 51°23.929 2°49.265 165.3 10.9 160 23.5
2009-08-05 14:27:13 51°23.755 2°49.367 164.8 10.9 160 23.9
2009-08-05 14:28:12 51°23.588 2°49.467 165.1 11 160 23
2009-08-05 14:29:12 51°23.418 2°49.57 165.1 10.9 160 21.1
2009-08-05 14:30:12 51°23.247 2°49.671 165.3 10.9 160 19.6
2009-08-05 14:31:12 51°23.078 2°49.766 170 10.6 167 16.5
2009-08-05 14:32:12 51°22.904 2°49.8 181.2 10.6 179 17.4
2009-08-05 14:33:12 51°22.727 2°49.807 182.9 10.7 179 19.2
2009-08-05 14:34:12 51°22.548 2°49.816 181.5 10.9 177 23
2009-08-05 14:35:12 51°22.368 2°49.832 181.8 10.9 177 24.6
2009-08-05 14:36:12 51°22.186 2°49.848 180.3 11 176 24.6
2009-08-05 14:37:12 51°22.004 2°49.869 180.1 10.9 176 24.3
2009-08-05 14:38:12 51°21.822 2°49.881 181.1 10.9 177 23.9
2009-08-05 14:39:13 51°21.641 2°49.944 168.5 11 165 23.1
2009-08-05 14:40:12 51°21.467 2°50.021 168.5 11.1 165 23.5
2009-08-05 14:41:12 51°21.29 2°50.101 168.8 11 164 23.9
2009-08-05 14:42:12 51°21.117 2°50.192 164.6 11 159 24.4
2009-08-05 14:43:13 51°20.946 2°50.306 162.5 10.9 157 24.2
2009-08-05 14:44:12 51°20.781 2°50.415 163.2 10.9 157 22.8
2009-08-05 14:45:13 51°20.609 2°50.521 164.8 10.9 160 20.6
2009-08-05 14:46:13 51°20.438 2°50.619 164.7 10.9 160 18.2
2009-08-05 14:47:12 51°20.268 2°50.71 165.1 10.9 162 16.6
2009-08-05 14:48:12 51°20.095 2°50.802 164.7 11 162 14.5
2009-08-05 14:49:12 51°19.921 2°50.892 164.6 11 162 14.1
2009-08-05 14:50:12 51°19.746 2°50.98 164.6 11 162 13.5
2009-08-05 14:51:12 51°19.571 2°51.069 164.7 11 163 15.1
2009-08-05 14:52:12 51°19.397 2°51.16 164.6 11 162 16
2009-08-05 14:53:12 51°19.226 2°51.259 161.9 10.9 160 16.2
2009-08-05 14:54:12 51°19.054 2°51.347 166.6 10.8 164 15.5
2009-08-05 14:55:12 51°18.88 2°51.422 167.6 10.8 165 15.4
2009-08-05 14:56:12 51°18.705 2°51.487 169.8 10.9 167 15
2009-08-05 14:57:12 51°18.528 2°51.548 169.6 10.9 168 14.1
2009-08-05 14:58:12 51°18.352 2°51.611 169.3 10.8 168 13.2
2009-08-05 14:59:12 51°18.177 2°51.676 165 10.7 160 12.3
2009-08-05 15:00:12 51°18.014 2°51.796 155.2 10.9 153 11.6
2009-08-05 15:01:13 51°17.847 2°51.92 158.2 10.8 156 11.4
2009-08-05 15:02:13 51°17.68 2°52.03 160.6 11 159 11.8
2009-08-05 15:03:12 51°17.513 2°52.135 159.8 10.9 158 12.1
2009-08-05 15:04:13 51°17.341 2°52.246 159.8 11 158 12.1
2009-08-05 15:05:12 51°17.175 2°52.353 159.9 11 158 11.2
2009-08-05 15:06:12 51°17.011 2°52.482 154.3 11 152 10.8
2009-08-05 15:07:12 51°16.849 2°52.62 154.3 11.1 152 10.6
2009-08-05 15:08:12 51°16.689 2°52.76 152.7 11.1 152 11.8
2009-08-05 15:09:12 51°16.524 2°52.897 154.8 11.2 152 12.7
2009-08-05 15:10:12 51°16.362 2°53.033 154 10.9 152 12.9
2009-08-05 15:11:13 51°16.199 2°53.174 153.2 10.9 152 12.8
2009-08-05 15:12:12 51°16.04 2°53.307 154.3 10.9 152 12.6
2009-08-05 15:13:12 51°15.878 2°53.44 153.4 10.9 153 12.7
2009-08-05 15:14:12 51°15.717 2°53.575 151.9 11 152 12.7
2009-08-05 15:15:12 51°15.555 2°53.711 152.5 11 153 11.9
2009-08-05 15:16:12 51°15.394 2°53.847 152.2 11 152 10.6
2009-08-05 15:17:12 51°15.233 2°53.984 152.2 10.9 152 9.9
2009-08-05 15:18:12 51°15.084 2°54.094 159 10.4 159 9.8
2009-08-05 15:19:13 51°14.911 2°54.185 163.4 10.8 163 9.8
2009-08-05 15:20:13 51°14.736 2°54.263 164.3 10.9 163 11.2
2009-08-05 15:21:12 51°14.576 2°54.385 144.5 10.9 142 11.3
2009-08-05 15:22:12 51°14.48 2°54.6 117.5 10.2 117 11
2009-08-05 15:23:12 51°14.404 2°54.855 114.9 10.7 116 10.6
2009-08-05 15:24:12 51°14.322 2°55.104 118.6 10.6 121 10.8
2009-08-05 15:25:12 51°14.218 2°55.313 136.9 9.9 139 11.8
2009-08-05 15:26:12 51°14.077 2°55.447 155.1 10 155 11.3
2009-08-05 15:27:12 51°13.942 2°55.542 156.1 7.2 156 11.5
2009-08-05 15:28:12 51°13.849 2°55.611 154.1 5.6 154 11.9
2009-08-05 15:29:13 51°13.771 2°55.686 142.2 5.3 141 12
2009-08-05 15:30:12 51°13.723 2°55.773 125.7 4.1 125 12.5
2009-08-05 15:31:13 51°13.687 2°55.869 117.9 4.1 117 9.7
2009-08-05 15:32:12 51°13.667 2°55.944 116.7 1.4 119 9.1
2009-08-05 15:33:12 51°13.662 2°55.956 129.1 0.3 112 9